VHHH METAR and TAF | Updated Today

VHHH METAR

Hong Kong International Airport

Observation time: 20 min. ago

VHHH 061930Z 08008KT 9999 FEW006 SCT025 20/17 Q1014 NOSIG

Need help? Read our tutorial on how to read METARs or read the parsed version below.

Hong Kong International Airport (VHHH) METAR

  • Weather conditions on Mon, 06 Feb 2023 19:30:00 +0000 (20 min. ago):
  • Present conditions: Dry
  • Clouds: A few at 183 meters; scattered at 762 meters
  • Visibility: Greater than 10 km
  • Wind: 80 degrees at 8 knots
  • Temperature: 20 celsius
  • Dew point: 17 celsius
  • Pressure: 1014 millibars
  • Remarks: None


Useful to know...

VHHH TAF

Hong Kong International Airport

TAF VHHH 061700Z 0618/0724 09010KT 7000 FEW015 SCT025 TX25/0706Z TN19/0623Z TN19/0723Z TEMPO 0618/0703 VRB05KT TEMPO 0703/0709 27010KT 4000 HZ
Observation time: 2:50 hr. ago
Need help? Read our tutorial on how to read TAFs or read the parsed version below.

Parsed version of TAF for Hong Kong International Airport (VHHH)

  • From 06 February at 18:00 UTC, to day 07 of the month at 24:00 UTC
  • Clouds: A few at 457 meters; scattered at 762 meters
  • Visibility: 7000 meters
  • Wind: 90 degrees at 10
  • Expected to arise temporarily, from 06 February at 18:00 UTC, to day 07 of the month at 03:00 UTC
  • Wind: Variable at 5
  • Expected to arise temporarily, from 07 February at 03:00 UTC, to day 07 of the month at 09:00 UTC
  • Visibility: 4000 meters
  • Wind: 270 degrees at 10
  • Other: Haze